createdAt,value
2022-12-29T00:01:26.394Z,0.5351170568561873
2022-12-29T00:07:45.830Z,0.882943143812709
2022-12-29T00:14:04.710Z,0.26755852842809363
2022-12-29T00:27:18.541Z,0.38127090301003347
2022-12-29T00:33:39.236Z,0.22742474916387959
2022-12-29T00:39:57.955Z,0.568561872909699
2022-12-29T00:46:50.724Z,0.7090301003344481
2022-12-29T00:53:09.581Z,0.5351170568561873
2022-12-29T00:59:28.704Z,0.39464882943143814
2022-12-29T01:05:47.032Z,0.4280936454849498
2022-12-29T01:12:06.329Z,1.0234113712374582
2022-12-29T01:18:26.760Z,0.568561872909699
2022-12-29T01:30:48.304Z,0.822742474916388
2022-12-29T01:37:07.764Z,0.6822742474916388
2022-12-29T01:43:27.336Z,0.36789297658862874
2022-12-29T01:49:46.729Z,0.17391304347826086
2022-12-29T01:56:06.292Z,0.5351170568561873
2022-12-29T02:02:26.178Z,0.4816053511705686
2022-12-29T02:08:45.736Z,0.2608695652173913
2022-12-29T02:15:04.865Z,0.0802675585284281
2022-12-29T02:21:24.893Z,0.43478260869565216
2022-12-29T02:27:44.652Z,0.27424749163879597
2022-12-29T02:34:04.003Z,0.2608695652173913
2022-12-29T02:44:36.392Z,0.5351170568561873
2022-12-29T02:50:55.356Z,0.5351170568561873
2022-12-29T02:57:14.622Z,0.2809364548494983
2022-12-29T03:03:33.586Z,0.15384615384615385
2022-12-29T03:09:53.014Z,0.08695652173913043
2022-12-29T03:16:11.828Z,0.08695652173913043
2022-12-29T03:22:31.375Z,0.1806020066889632
2022-12-29T03:28:51.388Z,0.3979933110367893
2022-12-29T03:41:19.752Z,0.2408026755852843
2022-12-29T03:47:38.825Z,0.4882943143812709
2022-12-29T03:53:58.469Z,0.45484949832775917
2022-12-29T04:00:20.037Z,0.2608695652173913
2022-12-29T04:06:39.725Z,0.08695652173913043
2022-12-29T04:12:59.022Z,0.08695652173913043
2022-12-29T04:19:18.033Z,0.14715719063545152
2022-12-29T04:30:09.316Z,0.1939799331103679
2022-12-29T04:36:30.311Z,0.17391304347826086
2022-12-29T04:42:50.772Z,0.6254180602006689
2022-12-29T04:49:10.084Z,0.5785953177257525
2022-12-29T04:55:54.905Z,0.2608695652173913
2022-12-29T05:02:14.098Z,0.27424749163879597
2022-12-29T05:08:34.132Z,0.5083612040133779
2022-12-29T05:14:53.199Z,0.026755852842809364
2022-12-29T05:21:13.511Z,0.45484949832775917
2022-12-29T05:27:32.407Z,0.7892976588628763
2022-12-29T05:33:51.882Z,0.7892976588628763
2022-12-29T05:40:11.307Z,0.45484949832775917
2022-12-29T05:46:31.213Z,0.3612040133779264
2022-12-29T05:52:51.639Z,0.09364548494983277
2022-12-29T06:05:15.137Z,0.26755852842809363
2022-12-29T06:11:35.549Z,0.17391304347826086
2022-12-29T06:17:58.407Z,0.6354515050167224
2022-12-29T06:24:19.426Z,0.6956521739130435
2022-12-29T06:30:41.802Z,0.26755852842809363
2022-12-29T06:37:04.100Z,0.47491638795986624
2022-12-29T06:43:27.898Z,0.31438127090301005
2022-12-29T06:55:47.214Z,0.882943143812709
2022-12-29T07:02:08.442Z,0.7157190635451505
2022-12-29T07:08:30.265Z,0.44816053511705684
2022-12-29T07:18:03.969Z,0.7892976588628763
2022-12-29T07:28:30.406Z,0.26755852842809363
2022-12-29T07:34:54.737Z,0.6254180602006689
2022-12-29T07:42:36.891Z,0.5284280936454849
2022-12-29T07:48:59.304Z,1.0702341137123745
2022-12-29T07:55:24.733Z,0.5484949832775919
2022-12-29T08:01:51.686Z,0.6755852842809364
2022-12-29T08:08:15.948Z,0.2842809364548495
2022-12-29T08:14:40.484Z,0.6321070234113713
2022-12-29T08:23:41.543Z,0.8093645484949833
2022-12-29T08:31:29.986Z,0.802675585284281
2022-12-29T08:37:56.050Z,0.8862876254180602
2022-12-29T08:44:19.133Z,1.1036789297658862
2022-12-29T08:50:41.942Z,1.1772575250836121
2022-12-29T08:57:04.773Z,1.37123745819398
2022-12-29T09:03:45.912Z,1.4615384615384615
2022-12-29T09:10:27.552Z,0.782608695652174
2022-12-29T09:16:51.467Z,1.0167224080267558
2022-12-29T09:28:15.674Z,1.2775919732441472
2022-12-29T09:34:42.920Z,0.6086956521739131
2022-12-29T09:41:06.411Z,0.7959866220735786
2022-12-29T09:47:31.090Z,1.5418060200668897
2022-12-29T09:53:54.599Z,1.0468227424749164
2022-12-29T10:00:22.823Z,1.3377926421404682
2022-12-29T10:07:19.311Z,1.4648829431438126
2022-12-29T10:13:50.885Z,1.7591973244147157
2022-12-29T10:20:13.633Z,1.0234113712374582
2022-12-29T10:26:35.609Z,0.4214046822742475
2022-12-29T10:32:58.340Z,0.802675585284281
2022-12-29T10:45:43.896Z,0.6956521739130435
2022-12-29T10:52:11.701Z,0.44816053511705684
2022-12-29T10:58:34.498Z,0.6153846153846154
2022-12-29T11:15:38.480Z,1.0903010033444815
2022-12-29T11:28:06.381Z,0.9832775919732442
2022-12-29T11:34:29.242Z,1.5217391304347827
2022-12-29T11:40:53.242Z,1.3678929765886287
2022-12-29T11:47:16.674Z,1.160535117056856
2022-12-29T11:53:39.759Z,1.8227424749163879
2022-12-29T12:00:03.866Z,0.9264214046822743
2022-12-29T12:06:28.841Z,1.2508361204013378
2022-12-29T12:12:51.364Z,1.214046822742475
2022-12-29T12:19:16.080Z,2.5418060200668897
2022-12-29T12:30:45.901Z,0.6354515050167224
2022-12-29T12:37:08.107Z,0.9230769230769231
2022-12-29T12:43:36.642Z,0.9230769230769231
2022-12-29T12:49:59.985Z,1.160535117056856
2022-12-29T12:56:24.895Z,1.0635451505016722
2022-12-29T13:05:29.574Z,1.9732441471571907
2022-12-29T13:13:44.114Z,1.4247491638795986
2022-12-29T13:20:16.147Z,1.2809364548494984
2022-12-29T13:26:40.318Z,0.903010033444816
2022-12-29T13:33:03.312Z,0.6020066889632107
2022-12-29T13:45:14.084Z,1.0
2022-12-29T13:51:37.219Z,1.411371237458194
2022-12-29T13:57:59.943Z,1.157190635451505
2022-12-29T14:04:23.045Z,1.2207357859531773
2022-12-29T14:10:46.475Z,1.4247491638795986
2022-12-29T14:17:14.777Z,1.3444816053511706
2022-12-29T14:25:09.409Z,1.6755852842809364
2022-12-29T14:31:33.077Z,1.2441471571906355
2022-12-29T14:37:56.821Z,1.2909698996655519
2022-12-29T14:44:20.649Z,1.1070234113712374
2022-12-29T14:50:43.736Z,1.4046822742474916
2022-12-29T14:57:18.093Z,0.8896321070234113
2022-12-29T15:03:39.239Z,1.2173913043478262
2022-12-29T15:10:00.593Z,0.9163879598662207
2022-12-29T15:16:20.740Z,1.9531772575250836
2022-12-29T15:22:41.576Z,1.0267558528428093
2022-12-29T15:29:03.762Z,0.9297658862876255
2022-12-29T15:35:25.288Z,1.7023411371237458
2022-12-29T15:41:46.571Z,1.5551839464882944
2022-12-29T15:58:39.110Z,2.6187290969899664
2022-12-29T16:09:52.359Z,1.040133779264214
2022-12-29T16:30:13.463Z,1.4448160535117056
2022-12-29T16:36:33.467Z,1.5518394648829432
2022-12-29T16:42:53.195Z,2.20066889632107
2022-12-29T16:49:12.666Z,2.6923076923076925
2022-12-29T17:00:03.232Z,2.277591973244147
2022-12-29T17:06:23.222Z,1.7892976588628762
2022-12-29T17:18:51.161Z,2.016722408026756
2022-12-29T17:25:10.524Z,1.6120401337792643
2022-12-29T17:31:30.162Z,2.05685618729097
2022-12-29T17:40:00.273Z,2.431438127090301
2022-12-29T17:46:19.725Z,1.5785953177257526
2022-12-29T17:57:37.445Z,3.1839464882943145
2022-12-29T18:06:10.335Z,1.9732441471571907
2022-12-29T18:12:30.067Z,2.5986622073578594
2022-12-29T18:18:49.779Z,2.0702341137123748
2022-12-29T18:25:09.900Z,1.5384615384615385
2022-12-29T18:35:57.450Z,1.7525083612040133
2022-12-29T18:42:17.536Z,1.725752508361204
2022-12-29T18:51:30.162Z,1.157190635451505
2022-12-29T18:57:49.520Z,0.5284280936454849
2022-12-29T19:04:42.302Z,1.0434782608695652
2022-12-29T19:11:01.507Z,0.9832775919732442
2022-12-29T19:18:44.126Z,0.8160535117056856
2022-12-29T19:31:05.502Z,1.3678929765886287
2022-12-29T19:37:26.028Z,2.180602006688963
2022-12-29T19:51:38.731Z,1.8227424749163879
2022-12-29T19:58:00.182Z,0.43478260869565216
2022-12-29T20:04:21.274Z,0.7157190635451505
2022-12-29T20:10:42.461Z,1.3311036789297659
2022-12-29T20:17:11.329Z,0.8762541806020067
2022-12-29T20:23:32.206Z,1.5183946488294315
2022-12-29T20:29:51.963Z,1.351170568561873
2022-12-29T20:36:11.660Z,1.5919732441471572
2022-12-29T20:42:31.326Z,0.9665551839464883
2022-12-29T20:48:52.237Z,1.5217391304347827
2022-12-29T20:55:11.399Z,1.5351170568561874
2022-12-29T21:01:31.984Z,1.2909698996655519
2022-12-29T21:07:51.340Z,1.7725752508361203
2022-12-29T21:14:11.297Z,1.1438127090301002
2022-12-29T21:20:31.181Z,2.698996655518395
2022-12-29T21:26:50.901Z,2.2240802675585285
2022-12-29T21:35:31.708Z,2.20066889632107
2022-12-29T21:43:48.880Z,1.68561872909699
2022-12-29T21:54:41.416Z,1.588628762541806
2022-12-29T22:01:01.353Z,2.217391304347826
2022-12-29T22:16:53.221Z,2.0267558528428093
2022-12-29T22:27:36.946Z,2.9364548494983276
2022-12-29T22:34:53.278Z,2.508361204013378
2022-12-29T22:41:13.058Z,3.0
2022-12-29T22:47:32.424Z,2.120401337792642
2022-12-29T22:53:53.553Z,2.197324414715719
2022-12-29T23:05:48.526Z,1.5986622073578596
2022-12-29T23:12:11.684Z,1.8160535117056855
2022-12-29T23:18:31.895Z,2.1070234113712374
2022-12-29T23:24:51.608Z,3.2140468227424748
2022-12-29T23:31:11.767Z,3.100334448160535
2022-12-29T23:37:31.915Z,2.347826086956522
2022-12-29T23:43:51.287Z,2.42809364548495
2022-12-29T23:50:11.704Z,3.117056856187291
